sensor_id;sensor_type;location;lat;lon;timestamp;pressure;altitude;pressure_sealevel;temperature;humidity
25232;BME280;13176;51.140;6.290;2024-03-02T00:00:08;99035.53;;;11.10;61.87
25232;BME280;13176;51.140;6.290;2024-03-02T00:02:43;99251.88;;;12.38;62.05
25232;BME280;13176;51.140;6.290;2024-03-02T00:05:15;99227.78;;;12.12;62.11
25232;BME280;13176;51.140;6.290;2024-03-02T00:07:43;99170.97;;;11.77;62.60
25232;BME280;13176;51.140;6.290;2024-03-02T00:10:11;99285.50;;;12.27;62.70
25232;BME280;13176;51.140;6.290;2024-03-02T00:12:41;99152.16;;;11.89;61.84
25232;BME280;13176;51.140;6.290;2024-03-02T00:18:05;99008.03;;;11.01;62.34
25232;BME280;13176;51.140;6.290;2024-03-02T00:20:34;99091.09;;;11.51;62.11
25232;BME280;13176;51.140;6.290;2024-03-02T00:23:07;99225.31;;;12.29;62.33
25232;BME280;13176;51.140;6.290;2024-03-02T00:25:48;99246.66;;;12.38;62.38
25232;BME280;13176;51.140;6.290;2024-03-02T00:30:59;99278.38;;;12.69;61.75
25232;BME280;13176;51.140;6.290;2024-03-02T00:33:36;99209.22;;;12.18;62.07
25232;BME280;13176;51.140;6.290;2024-03-02T00:36:03;99274.94;;;12.68;61.65
25232;BME280;13176;51.140;6.290;2024-03-02T00:38:31;99233.50;;;12.40;62.03
25232;BME280;13176;51.140;6.290;2024-03-02T00:40:59;99175.81;;;12.24;61.55
25232;BME280;13176;51.140;6.290;2024-03-02T00:43:41;99281.56;;;12.75;61.32
25232;BME280;13176;51.140;6.290;2024-03-02T00:46:11;99278.88;;;12.39;62.95
25232;BME280;13176;51.140;6.290;2024-03-02T00:48:51;99181.78;;;12.08;62.64
25232;BME280;13176;51.140;6.290;2024-03-02T00:51:19;99272.19;;;12.51;62.14
25232;BME280;13176;51.140;6.290;2024-03-02T00:53:45;99269.69;;;12.68;61.96
25232;BME280;13176;51.140;6.290;2024-03-02T00:56:12;99252.19;;;12.50;61.97
25232;BME280;13176;51.140;6.290;2024-03-02T00:58:39;99279.38;;;12.66;62.36
25232;BME280;13176;51.140;6.290;2024-03-02T01:01:06;99246.81;;;12.53;62.47
25232;BME280;13176;51.140;6.290;2024-03-02T01:03:36;99121.06;;;11.83;62.08
25232;BME280;13176;51.140;6.290;2024-03-02T01:06:04;99154.53;;;11.75;62.79
25232;BME280;13176;51.140;6.290;2024-03-02T01:08:31;99077.97;;;11.53;62.25
25232;BME280;13176;51.140;6.290;2024-03-02T01:10:57;99277.38;;;12.53;62.49
25232;BME280;13176;51.140;6.290;2024-03-02T01:13:24;99173.06;;;11.89;62.69
25232;BME280;13176;51.140;6.290;2024-03-02T01:15:50;99055.69;;;11.26;62.83
25232;BME280;13176;51.140;6.290;2024-03-02T01:18:17;99184.97;;;11.96;62.92
25232;BME280;13176;51.140;6.290;2024-03-02T01:20:44;99260.38;;;12.43;62.78
25232;BME280;13176;51.140;6.290;2024-03-02T01:23:11;99282.75;;;12.50;62.63
25232;BME280;13176;51.140;6.290;2024-03-02T01:25:40;99134.34;;;11.58;62.77
25232;BME280;13176;51.140;6.290;2024-03-02T01:28:07;99249.19;;;12.40;62.53
25232;BME280;13176;51.140;6.290;2024-03-02T01:30:34;99128.09;;;11.62;62.62
25232;BME280;13176;51.140;6.290;2024-03-02T01:33:01;99173.06;;;11.89;62.91
25232;BME280;13176;51.140;6.290;2024-03-02T01:35:31;99206.84;;;11.93;63.13
25232;BME280;13176;51.140;6.290;2024-03-02T01:37:58;99170.53;;;12.06;62.37
25232;BME280;13176;51.140;6.290;2024-03-02T01:40:26;99078.72;;;11.36;62.27
25232;BME280;13176;51.140;6.290;2024-03-02T01:42:53;99107.53;;;11.53;62.31
25232;BME280;13176;51.140;6.290;2024-03-02T01:45:21;99180.38;;;12.01;62.53
25232;BME280;13176;51.140;6.290;2024-03-02T01:47:48;99308.50;;;12.77;62.07
25232;BME280;13176;51.140;6.290;2024-03-02T01:50:15;99125.13;;;11.70;61.87
25232;BME280;13176;51.140;6.290;2024-03-02T01:52:41;99294.22;;;12.66;62.51
25232;BME280;13176;51.140;6.290;2024-03-02T01:55:10;99283.72;;;12.48;62.31
25232;BME280;13176;51.140;6.290;2024-03-02T01:57:36;99250.41;;;12.33;62.47
25232;BME280;13176;51.140;6.290;2024-03-02T02:00:03;99141.34;;;11.58;62.71
25232;BME280;13176;51.140;6.290;2024-03-02T02:02:30;99236.97;;;11.62;65.25
25232;BME280;13176;51.140;6.290;2024-03-02T02:04:56;99295.69;;;11.93;66.53
25232;BME280;13176;51.140;6.290;2024-03-02T02:07:23;99294.72;;;12.16;67.07
25232;BME280;13176;51.140;6.290;2024-03-02T02:09:51;99296.03;;;12.06;67.35
25232;BME280;13176;51.140;6.290;2024-03-02T02:12:17;99326.88;;;12.18;70.11
25232;BME280;13176;51.140;6.290;2024-03-02T02:14:48;99158.19;;;10.67;74.31
25232;BME280;13176;51.140;6.290;2024-03-02T02:17:20;99343.81;;;12.09;74.06
25232;BME280;13176;51.140;6.290;2024-03-02T02:19:47;99339.78;;;11.81;74.42
25232;BME280;13176;51.140;6.290;2024-03-02T02:22:16;99291.34;;;11.94;72.89
25232;BME280;13176;51.140;6.290;2024-03-02T02:24:43;99319.44;;;12.29;72.07
25232;BME280;13176;51.140;6.290;2024-03-02T02:27:10;99228.34;;;11.60;72.01
25232;BME280;13176;51.140;6.290;2024-03-02T02:29:36;99102.63;;;10.43;74.04
25232;BME280;13176;51.140;6.290;2024-03-02T02:32:03;99098.59;;;10.14;74.27
25232;BME280;13176;51.140;6.290;2024-03-02T02:34:30;99240.25;;;11.24;73.67
25232;BME280;13176;51.140;6.290;2024-03-02T02:36:57;99293.53;;;11.40;74.55
25232;BME280;13176;51.140;6.290;2024-03-02T02:39:23;99340.69;;;11.80;73.39
25232;BME280;13176;51.140;6.290;2024-03-02T02:41:50;99338.88;;;11.82;73.45
25232;BME280;13176;51.140;6.290;2024-03-02T02:44:16;99348.19;;;11.23;75.35
25232;BME280;13176;51.140;6.290;2024-03-02T02:46:43;99325.50;;;11.68;73.72
25232;BME280;13176;51.140;6.290;2024-03-02T02:49:10;99320.00;;;11.75;73.16
25232;BME280;13176;51.140;6.290;2024-03-02T02:51:38;99243.13;;;11.38;72.30
25232;BME280;13176;51.140;6.290;2024-03-02T02:54:04;99185.69;;;11.38;71.10
25232;BME280;13176;51.140;6.290;2024-03-02T02:56:33;99325.22;;;11.52;74.35
25232;BME280;13176;51.140;6.290;2024-03-02T02:59:00;99319.91;;;11.77;72.45
25232;BME280;13176;51.140;6.290;2024-03-02T03:01:29;99251.97;;;11.57;71.95
25232;BME280;13176;51.140;6.290;2024-03-02T03:03:56;99316.88;;;11.66;72.58
25232;BME280;13176;51.140;6.290;2024-03-02T03:06:22;99330.50;;;11.74;72.51
25232;BME280;13176;51.140;6.290;2024-03-02T03:08:49;99250.44;;;10.87;73.72
25232;BME280;13176;51.140;6.290;2024-03-02T03:11:15;99331.94;;;11.81;72.03
25232;BME280;13176;51.140;6.290;2024-03-02T03:13:42;99232.53;;;11.42;71.40
25232;BME280;13176;51.140;6.290;2024-03-02T03:16:09;99108.75;;;10.85;70.73
25232;BME280;13176;51.140;6.290;2024-03-02T03:18:35;99147.47;;;11.16;70.86
25232;BME280;13176;51.140;6.290;2024-03-02T03:21:02;99293.03;;;11.95;71.81
25232;BME280;13176;51.140;6.290;2024-03-02T03:23:29;99206.09;;;11.50;71.17
25232;BME280;13176;51.140;6.290;2024-03-02T03:25:56;99194.56;;;11.34;71.37
25232;BME280;13176;51.140;6.290;2024-03-02T03:28:22;99151.00;;;11.15;71.68
25232;BME280;13176;51.140;6.290;2024-03-02T03:30:49;99129.38;;;10.91;71.88
25232;BME280;13176;51.140;6.290;2024-03-02T03:33:18;99196.13;;;11.38;71.94
25232;BME280;13176;51.140;6.290;2024-03-02T03:35:44;99249.34;;;11.57;72.83
25232;BME280;13176;51.140;6.290;2024-03-02T03:38:11;99300.94;;;11.93;72.44
25232;BME280;13176;51.140;6.290;2024-03-02T03:40:38;99179.66;;;11.16;72.99
25232;BME280;13176;51.140;6.290;2024-03-02T03:43:04;99157.31;;;11.09;72.74
25232;BME280;13176;51.140;6.290;2024-03-02T03:45:31;99326.50;;;12.27;72.38
25232;BME280;13176;51.140;6.290;2024-03-02T03:47:57;99298.91;;;12.20;72.27
25232;BME280;13176;51.140;6.290;2024-03-02T03:50:24;99213.94;;;11.70;72.14
25232;BME280;13176;51.140;6.290;2024-03-02T03:52:51;99293.53;;;12.03;72.61
25232;BME280;13176;51.140;6.290;2024-03-02T03:55:17;99302.94;;;12.07;72.33
25232;BME280;13176;51.140;6.290;2024-03-02T03:57:43;99154.88;;;11.26;71.89
25232;BME280;13176;51.140;6.290;2024-03-02T04:00:10;99303.47;;;12.15;71.91
25232;BME280;13176;51.140;6.290;2024-03-02T04:02:38;99324.28;;;12.18;72.78
25232;BME280;13176;51.140;6.290;2024-03-02T04:05:05;99328.44;;;12.02;73.09
25232;BME280;13176;51.140;6.290;2024-03-02T04:07:36;99333.03;;;11.97;73.11
25232;BME280;13176;51.140;6.290;2024-03-02T04:10:10;99320.34;;;12.08;72.85
25232;BME280;13176;51.140;6.290;2024-03-02T04:12:37;99310.53;;;11.93;73.84
25232;BME280;13176;51.140;6.290;2024-03-02T04:15:06;99218.84;;;11.36;73.89
25232;BME280;13176;51.140;6.290;2024-03-02T04:17:33;99285.22;;;11.73;73.99
25232;BME280;13176;51.140;6.290;2024-03-02T04:20:00;99334.19;;;11.90;74.42
25232;BME280;13176;51.140;6.290;2024-03-02T04:22:27;99284.69;;;11.65;74.03
25232;BME280;13176;51.140;6.290;2024-03-02T04:24:57;99204.34;;;11.29;73.91
25232;BME280;13176;51.140;6.290;2024-03-02T04:27:23;99334.31;;;12.07;73.54
25232;BME280;13176;51.140;6.290;2024-03-02T04:29:50;99163.22;;;11.14;73.54
25232;BME280;13176;51.140;6.290;2024-03-02T04:32:16;99337.72;;;12.09;73.65
25232;BME280;13176;51.140;6.290;2024-03-02T04:34:43;99338.47;;;12.12;73.51
25232;BME280;13176;51.140;6.290;2024-03-02T04:37:11;99239.38;;;11.66;73.73
25232;BME280;13176;51.140;6.290;2024-03-02T04:39:38;99334.31;;;12.07;73.53
25232;BME280;13176;51.140;6.290;2024-03-02T04:42:08;99217.16;;;11.35;73.64
25232;BME280;13176;51.140;6.290;2024-03-02T04:44:34;99321.00;;;11.93;73.64
25232;BME280;13176;51.140;6.290;2024-03-02T04:47:01;99259.69;;;11.60;73.47
25232;BME280;13176;51.140;6.290;2024-03-02T04:49:28;99317.22;;;12.00;72.88
25232;BME280;13176;51.140;6.290;2024-03-02T04:51:56;99214.69;;;11.52;72.47
25232;BME280;13176;51.140;6.290;2024-03-02T04:54:23;99200.06;;;11.28;72.70
25232;BME280;13176;51.140;6.290;2024-03-02T04:56:49;99295.66;;;11.95;72.47
25232;BME280;13176;51.140;6.290;2024-03-02T04:59:18;99214.69;;;11.52;72.16
25232;BME280;13176;51.140;6.290;2024-03-02T05:01:47;99213.84;;;11.51;72.08
25232;BME280;13176;51.140;6.290;2024-03-02T05:04:14;99182.53;;;11.30;72.03
25232;BME280;13176;51.140;6.290;2024-03-02T05:06:41;99236.84;;;11.65;71.87
25232;BME280;13176;51.140;6.290;2024-03-02T05:09:10;99354.41;;;12.06;72.41
25232;BME280;13176;51.140;6.290;2024-03-02T05:11:37;99362.66;;;12.17;71.86
25232;BME280;13176;51.140;6.290;2024-03-02T05:14:20;99189.47;;;11.31;71.45
25232;BME280;13176;51.140;6.290;2024-03-02T05:16:46;99229.50;;;11.73;70.80
25232;BME280;13176;51.140;6.290;2024-03-02T05:19:12;99336.97;;;12.27;70.51
25232;BME280;13176;51.140;6.290;2024-03-02T05:21:39;99315.13;;;12.08;70.72
25232;BME280;13176;51.140;6.290;2024-03-02T05:24:08;99348.47;;;12.23;70.76
25232;BME280;13176;51.140;6.290;2024-03-02T05:26:34;99222.38;;;11.35;70.96
25232;BME280;13176;51.140;6.290;2024-03-02T05:29:01;99359.97;;;12.19;70.37
25232;BME280;13176;51.140;6.290;2024-03-02T05:31:29;99236.97;;;11.62;69.88
25232;BME280;13176;51.140;6.290;2024-03-02T05:33:55;99209.03;;;11.42;69.75
25232;BME280;13176;51.140;6.290;2024-03-02T05:36:23;99262.09;;;11.64;69.82
25232;BME280;13176;51.140;6.290;2024-03-02T05:38:52;99265.25;;;11.72;69.80
25232;BME280;13176;51.140;6.290;2024-03-02T05:41:19;99234.38;;;11.39;70.25
25232;BME280;13176;51.140;6.290;2024-03-02T05:43:45;99342.44;;;12.21;69.85
25232;BME280;13176;51.140;6.290;2024-03-02T05:46:12;99271.91;;;11.79;69.40
25232;BME280;13176;51.140;6.290;2024-03-02T05:48:38;99364.16;;;12.43;69.08
25232;BME280;13176;51.140;6.290;2024-03-02T05:51:07;99344.28;;;12.19;69.65
25232;BME280;13176;51.140;6.290;2024-03-02T05:53:34;99153.34;;;11.01;69.65
25232;BME280;13176;51.140;6.290;2024-03-02T05:56:01;99331.22;;;11.99;69.91
25232;BME280;13176;51.140;6.290;2024-03-02T05:58:31;99208.66;;;11.30;69.76
25232;BME280;13176;51.140;6.290;2024-03-02T06:01:24;99216.19;;;11.16;70.19
25232;BME280;13176;51.140;6.290;2024-03-02T06:03:55;99240.59;;;11.36;70.10
25232;BME280;13176;51.140;6.290;2024-03-02T06:06:23;99258.44;;;11.47;70.53
25232;BME280;13176;51.140;6.290;2024-03-02T06:08:49;99342.63;;;11.96;70.22
25232;BME280;13176;51.140;6.290;2024-03-02T06:11:17;99245.34;;;11.27;70.03
25232;BME280;13176;51.140;6.290;2024-03-02T06:13:43;99138.06;;;10.70;69.43
25232;BME280;13176;51.140;6.290;2024-03-02T06:16:09;99328.41;;;11.82;69.67
25232;BME280;13176;51.140;6.290;2024-03-02T06:18:36;99349.44;;;12.00;68.77
25232;BME280;13176;51.140;6.290;2024-03-02T06:21:03;99336.03;;;12.08;68.57
25232;BME280;13176;51.140;6.290;2024-03-02T06:23:29;99366.78;;;12.23;68.56
25232;BME280;13176;51.140;6.290;2024-03-02T06:25:56;99222.13;;;11.20;68.89
25232;BME280;13176;51.140;6.290;2024-03-02T06:28:22;99253.81;;;11.32;68.67
25232;BME280;13176;51.140;6.290;2024-03-02T06:30:49;99221.53;;;11.13;69.17
25232;BME280;13176;51.140;6.290;2024-03-02T06:33:15;99380.34;;;12.11;68.83
25232;BME280;13176;51.140;6.290;2024-03-02T06:35:43;99199.19;;;11.06;68.63
25232;BME280;13176;51.140;6.290;2024-03-02T06:38:12;99268.88;;;11.47;68.79
25232;BME280;13176;51.140;6.290;2024-03-02T06:40:42;99331.81;;;11.84;68.84
25232;BME280;13176;51.140;6.290;2024-03-02T06:43:08;99277.84;;;11.63;68.42
25232;BME280;13176;51.140;6.290;2024-03-02T06:45:35;99356.56;;;11.97;68.16
25232;BME280;13176;51.140;6.290;2024-03-02T06:48:01;99266.94;;;11.52;68.34
25232;BME280;13176;51.140;6.290;2024-03-02T06:50:28;99352.91;;;12.01;68.52
25232;BME280;13176;51.140;6.290;2024-03-02T06:52:55;99264.34;;;11.52;68.20
25232;BME280;13176;51.140;6.290;2024-03-02T06:55:22;99214.16;;;11.24;68.33
25232;BME280;13176;51.140;6.290;2024-03-02T06:57:51;99410.44;;;12.41;68.04
25232;BME280;13176;51.140;6.290;2024-03-02T07:00:19;99368.84;;;12.15;68.49
25232;BME280;13176;51.140;6.290;2024-03-02T07:02:46;99286.75;;;11.57;68.49
25232;BME280;13176;51.140;6.290;2024-03-02T07:05:13;99381.13;;;12.13;68.48
25232;BME280;13176;51.140;6.290;2024-03-02T07:07:39;99294.16;;;11.68;68.58
25232;BME280;13176;51.140;6.290;2024-03-02T07:10:06;99410.84;;;12.32;68.95
25232;BME280;13176;51.140;6.290;2024-03-02T07:12:36;99404.84;;;12.30;68.48
25232;BME280;13176;51.140;6.290;2024-03-02T07:15:03;99429.66;;;12.40;68.96
25232;BME280;13176;51.140;6.290;2024-03-02T07:17:31;99324.72;;;11.66;69.47
25232;BME280;13176;51.140;6.290;2024-03-02T07:19:58;99363.91;;;11.87;69.77
25232;BME280;13176;51.140;6.290;2024-03-02T07:22:24;99389.00;;;11.91;69.77
25232;BME280;13176;51.140;6.290;2024-03-02T07:24:51;99413.78;;;12.03;70.02
25232;BME280;13176;51.140;6.290;2024-03-02T07:27:17;99233.47;;;10.97;70.23
25232;BME280;13176;51.140;6.290;2024-03-02T07:29:44;99393.56;;;11.86;70.34
25232;BME280;13176;51.140;6.290;2024-03-02T07:32:11;99332.41;;;11.47;70.46
25232;BME280;13176;51.140;6.290;2024-03-02T07:34:38;99226.38;;;10.79;70.45
25232;BME280;13176;51.140;6.290;2024-03-02T07:37:04;99446.06;;;12.02;70.75
25232;BME280;13176;51.140;6.290;2024-03-02T07:39:35;99346.75;;;11.37;70.63
25232;BME280;13176;51.140;6.290;2024-03-02T07:42:05;99363.75;;;11.47;70.51
25232;BME280;13176;51.140;6.290;2024-03-02T07:44:32;99413.31;;;11.72;70.22
25232;BME280;13176;51.140;6.290;2024-03-02T07:46:59;99457.03;;;11.90;70.45
25232;BME280;13176;51.140;6.290;2024-03-02T07:49:25;99449.31;;;11.87;70.73
25232;BME280;13176;51.140;6.290;2024-03-02T07:51:52;99434.88;;;11.77;70.47
25232;BME280;13176;51.140;6.290;2024-03-02T07:54:18;99339.19;;;11.30;70.51
25232;BME280;13176;51.140;6.290;2024-03-02T07:56:48;99472.84;;;12.08;70.66
25232;BME280;13176;51.140;6.290;2024-03-02T07:59:15;99446.44;;;11.93;70.24
25232;BME280;13176;51.140;6.290;2024-03-02T08:01:46;99334.91;;;11.06;70.09
25232;BME280;13176;51.140;6.290;2024-03-02T08:04:13;99459.94;;;12.04;69.95
25232;BME280;13176;51.140;6.290;2024-03-02T08:06:41;99410.09;;;11.87;69.29
25232;BME280;13176;51.140;6.290;2024-03-02T08:09:15;99251.53;;;11.03;69.17
25232;BME280;13176;51.140;6.290;2024-03-02T08:11:45;99454.69;;;12.25;69.11
25232;BME280;13176;51.140;6.290;2024-03-02T08:14:12;99368.03;;;11.93;68.85
25232;BME280;13176;51.140;6.290;2024-03-02T08:16:38;99235.31;;;11.38;68.31
25232;BME280;13176;51.140;6.290;2024-03-02T08:19:05;99464.63;;;12.78;67.65
25232;BME280;13176;51.140;6.290;2024-03-02T08:21:31;99454.69;;;12.86;66.82
25232;BME280;13176;51.140;6.290;2024-03-02T08:24:02;99476.38;;;12.90;66.48
25232;BME280;13176;51.140;6.290;2024-03-02T08:26:29;99402.88;;;12.35;66.59
25232;BME280;13176;51.140;6.290;2024-03-02T08:29:01;99471.13;;;12.90;66.33
25232;BME280;13176;51.140;6.290;2024-03-02T08:31:39;99331.91;;;12.02;65.70
25232;BME280;13176;51.140;6.290;2024-03-02T08:34:07;99452.50;;;12.97;65.66
25232;BME280;13176;51.140;6.290;2024-03-02T08:36:34;99454.34;;;12.95;65.28
25232;BME280;13176;51.140;6.290;2024-03-02T08:39:01;99350.63;;;12.53;64.53
25232;BME280;13176;51.140;6.290;2024-03-02T08:41:28;99460.81;;;13.45;64.57
25232;BME280;13176;51.140;6.290;2024-03-02T08:43:55;99369.56;;;12.98;64.31
25232;BME280;13176;51.140;6.290;2024-03-02T08:46:21;99472.63;;;13.35;63.73
25232;BME280;13176;51.140;6.290;2024-03-02T08:48:48;99454.13;;;13.20;63.80
25232;BME280;13176;51.140;6.290;2024-03-02T08:51:14;99299.81;;;12.39;64.06
25232;BME280;13176;51.140;6.290;2024-03-02T08:53:41;99460.31;;;13.17;64.16
25232;BME280;13176;51.140;6.290;2024-03-02T08:56:08;99365.22;;;12.58;64.19
25232;BME280;13176;51.140;6.290;2024-03-02T08:58:35;99472.38;;;13.21;64.22
25232;BME280;13176;51.140;6.290;2024-03-02T09:01:01;99460.31;;;13.17;64.15
25232;BME280;13176;51.140;6.290;2024-03-02T09:03:28;99442.91;;;13.16;63.99
25232;BME280;13176;51.140;6.290;2024-03-02T09:05:55;99473.66;;;13.31;62.86
25232;BME280;13176;51.140;6.290;2024-03-02T09:08:24;99348.47;;;12.43;62.62
25232;BME280;13176;51.140;6.290;2024-03-02T09:10:50;99364.28;;;12.59;62.22
25232;BME280;13176;51.140;6.290;2024-03-02T09:13:17;99442.19;;;13.13;62.14
25232;BME280;13176;51.140;6.290;2024-03-02T09:15:44;99459.41;;;13.18;62.04
25232;BME280;13176;51.140;6.290;2024-03-02T09:18:11;99319.84;;;12.20;61.90
25232;BME280;13176;51.140;6.290;2024-03-02T09:20:38;99457.34;;;13.06;60.80
25232;BME280;13176;51.140;6.290;2024-03-02T09:23:05;99286.53;;;12.23;60.51
25232;BME280;13176;51.140;6.290;2024-03-02T09:25:31;99458.13;;;13.08;59.45
25232;BME280;13176;51.140;6.290;2024-03-02T09:27:57;99483.38;;;13.29;59.48
25232;BME280;13176;51.140;6.290;2024-03-02T09:30:24;99493.06;;;13.27;59.48
25232;BME280;13176;51.140;6.290;2024-03-02T09:32:51;99438.75;;;12.92;59.26
25232;BME280;13176;51.140;6.290;2024-03-02T09:35:17;99459.69;;;12.92;59.69
25232;BME280;13176;51.140;6.290;2024-03-02T09:37:44;99344.41;;;12.16;59.48
25232;BME280;13176;51.140;6.290;2024-03-02T09:40:11;99341.06;;;12.32;59.59
25232;BME280;13176;51.140;6.290;2024-03-02T09:42:38;99446.06;;;12.84;60.98
25232;BME280;13176;51.140;6.290;2024-03-02T09:45:05;99422.00;;;12.96;59.73
25232;BME280;13176;51.140;6.290;2024-03-02T09:47:32;99341.34;;;12.84;59.23
25232;BME280;13176;51.140;6.290;2024-03-02T09:49:59;99419.03;;;13.42;59.79
25232;BME280;13176;51.140;6.290;2024-03-02T09:52:26;99462.94;;;13.56;58.30
25232;BME280;13176;51.140;6.290;2024-03-02T09:54:52;99435.72;;;13.58;58.36
25232;BME280;13176;51.140;6.290;2024-03-02T09:57:19;99415.03;;;13.52;58.97
25232;BME280;13176;51.140;6.290;2024-03-02T09:59:45;99449.06;;;13.72;58.61
25232;BME280;13176;51.140;6.290;2024-03-02T10:02:11;99444.34;;;13.97;58.01
25232;BME280;13176;51.140;6.290;2024-03-02T10:04:38;99439.19;;;14.14;57.31
25232;BME280;13176;51.140;6.290;2024-03-02T10:09:38;99462.38;;;14.40;57.35
25232;BME280;13176;51.140;6.290;2024-03-02T10:12:06;99453.00;;;13.99;57.52
25232;BME280;13176;51.140;6.290;2024-03-02T10:14:33;99449.69;;;14.14;56.38
25232;BME280;13176;51.140;6.290;2024-03-02T10:17:05;99452.94;;;14.36;56.11
25232;BME280;13176;51.140;6.290;2024-03-02T10:19:32;99414.28;;;14.04;56.55
25232;BME280;13176;51.140;6.290;2024-03-02T10:21:59;99418.88;;;14.17;56.28
25232;BME280;13176;51.140;6.290;2024-03-02T10:24:43;99453.13;;;14.67;57.25
25232;BME280;13176;51.140;6.290;2024-03-02T10:27:17;99455.69;;;14.68;55.93
25232;BME280;13176;51.140;6.290;2024-03-02T10:29:47;99429.59;;;14.65;56.34
25232;BME280;13176;51.140;6.290;2024-03-02T10:32:15;99425.28;;;14.96;55.87
25232;BME280;13176;51.140;6.290;2024-03-02T10:34:46;99443.41;;;14.85;55.76
25232;BME280;13176;51.140;6.290;2024-03-02T10:37:13;99445.81;;;14.73;54.34
25232;BME280;13176;51.140;6.290;2024-03-02T10:39:41;99415.28;;;14.87;54.23
25232;BME280;13176;51.140;6.290;2024-03-02T10:42:09;99431.66;;;15.42;53.74
25232;BME280;13176;51.140;6.290;2024-03-02T10:44:35;99397.25;;;16.22;50.35
25232;BME280;13176;51.140;6.290;2024-03-02T10:47:05;99404.72;;;18.12;45.24
25232;BME280;13176;51.140;6.290;2024-03-02T10:49:32;99423.91;;;18.67;43.02
25232;BME280;13176;51.140;6.290;2024-03-02T10:52:00;99389.28;;;19.09;40.61
25232;BME280;13176;51.140;6.290;2024-03-02T10:54:27;99264.94;;;18.48;40.25
25232;BME280;13176;51.140;6.290;2024-03-02T10:56:58;99427.78;;;19.50;40.42
25232;BME280;13176;51.140;6.290;2024-03-02T11:01:55;99426.88;;;19.14;40.18
25232;BME280;13176;51.140;6.290;2024-03-02T11:04:30;99320.56;;;18.84;40.79
25232;BME280;13176;51.140;6.290;2024-03-02T11:07:00;99380.16;;;19.62;38.57
25232;BME280;13176;51.140;6.290;2024-03-02T11:09:29;99343.47;;;19.69;37.77
25232;BME280;13176;51.140;6.290;2024-03-02T11:14:31;99424.72;;;21.09;37.31
25232;BME280;13176;51.140;6.290;2024-03-02T11:17:01;99246.41;;;20.49;35.82
25232;BME280;13176;51.140;6.290;2024-03-02T11:19:30;99395.00;;;20.93;37.21
25232;BME280;13176;51.140;6.290;2024-03-02T11:21:57;99390.84;;;20.78;37.81
25232;BME280;13176;51.140;6.290;2024-03-02T11:26:51;99373.34;;;21.21;36.48
25232;BME280;13176;51.140;6.290;2024-03-02T11:32:04;99386.59;;;21.54;35.67
25232;BME280;13176;51.140;6.290;2024-03-02T11:34:35;99391.78;;;21.99;35.67
25232;BME280;13176;51.140;6.290;2024-03-02T11:37:03;99366.53;;;21.93;35.20
25232;BME280;13176;51.140;6.290;2024-03-02T11:39:30;99340.97;;;20.83;36.06
25232;BME280;13176;51.140;6.290;2024-03-02T11:42:21;99347.50;;;21.23;35.64
25232;BME280;13176;51.140;6.290;2024-03-02T11:44:48;99378.03;;;21.83;36.56
25232;BME280;13176;51.140;6.290;2024-03-02T11:47:34;99321.44;;;20.84;35.89
25232;BME280;13176;51.140;6.290;2024-03-02T11:50:13;99330.00;;;20.42;35.87
25232;BME280;13176;51.140;6.290;2024-03-02T11:53:22;99227.88;;;18.98;38.28
25232;BME280;13176;51.140;6.290;2024-03-02T11:56:13;99306.13;;;18.38;40.71
25232;BME280;13176;51.140;6.290;2024-03-02T11:59:24;99379.38;;;18.22;43.27
25232;BME280;13176;51.140;6.290;2024-03-02T12:02:23;99363.56;;;17.69;45.21
25232;BME280;13176;51.140;6.290;2024-03-02T12:05:13;99259.25;;;17.37;44.63
25232;BME280;13176;51.140;6.290;2024-03-02T12:07:40;99263.03;;;17.19;44.28
25232;BME280;13176;51.140;6.290;2024-03-02T12:10:14;99209.59;;;17.04;44.43
25232;BME280;13176;51.140;6.290;2024-03-02T12:13:01;99247.38;;;17.30;45.24
25232;BME280;13176;51.140;6.290;2024-03-02T12:15:30;99287.06;;;17.55;43.93
25232;BME280;13176;51.140;6.290;2024-03-02T12:17:58;99290.50;;;17.29;45.84
25232;BME280;13176;51.140;6.290;2024-03-02T12:20:26;99290.78;;;17.39;45.91
25232;BME280;13176;51.140;6.290;2024-03-02T12:22:54;99202.47;;;16.92;44.97
25232;BME280;13176;51.140;6.290;2024-03-02T12:25:37;99263.97;;;17.32;45.33
25232;BME280;13176;51.140;6.290;2024-03-02T12:28:10;99297.06;;;17.50;45.04
25232;BME280;13176;51.140;6.290;2024-03-02T12:30:37;99233.31;;;17.04;46.23
25232;BME280;13176;51.140;6.290;2024-03-02T12:33:04;99198.47;;;16.72;46.17
25232;BME280;13176;51.140;6.290;2024-03-02T12:42:38;99198.53;;;16.85;45.76
25232;BME280;13176;51.140;6.290;2024-03-02T12:45:37;99292.47;;;17.80;46.14
25232;BME280;13176;51.140;6.290;2024-03-02T12:48:27;99250.00;;;17.30;46.31
25232;BME280;13176;51.140;6.290;2024-03-02T12:50:54;99285.00;;;17.60;45.41
25232;BME280;13176;51.140;6.290;2024-03-02T12:53:21;99228.50;;;17.50;45.13
25232;BME280;13176;51.140;6.290;2024-03-02T12:55:48;99234.72;;;17.49;44.83
25232;BME280;13176;51.140;6.290;2024-03-02T12:58:19;99279.78;;;17.85;45.47
25232;BME280;13176;51.140;6.290;2024-03-02T13:00:48;99197.94;;;17.34;45.83
25232;BME280;13176;51.140;6.290;2024-03-02T13:03:17;99164.34;;;17.23;44.67
25232;BME280;13176;51.140;6.290;2024-03-02T13:05:49;99233.72;;;17.64;44.68
25232;BME280;13176;51.140;6.290;2024-03-02T13:08:16;99179.56;;;17.46;44.11
25232;BME280;13176;51.140;6.290;2024-03-02T13:10:43;99289.56;;;18.10;45.55
25232;BME280;13176;51.140;6.290;2024-03-02T13:13:12;99162.78;;;17.47;45.06
25232;BME280;13176;51.140;6.290;2024-03-02T13:15:39;99039.56;;;16.31;45.37
25232;BME280;13176;51.140;6.290;2024-03-02T13:18:07;99051.72;;;16.20;45.40
25232;BME280;13176;51.140;6.290;2024-03-02T13:20:33;99228.75;;;17.19;46.41
25232;BME280;13176;51.140;6.290;2024-03-02T13:23:02;99244.69;;;17.04;46.22
25232;BME280;13176;51.140;6.290;2024-03-02T13:25:28;99224.47;;;17.05;47.90
25232;BME280;13176;51.140;6.290;2024-03-02T13:27:58;99180.25;;;16.96;46.75
25232;BME280;13176;51.140;6.290;2024-03-02T13:30:25;99293.50;;;17.51;47.77
25232;BME280;13176;51.140;6.290;2024-03-02T13:32:52;99203.59;;;16.88;46.40